createdAt,value
2022-09-07T00:00:50.611Z,100178.13
2022-09-07T00:03:18.849Z,100178.13
2022-09-07T00:05:47.903Z,100175.44
2022-09-07T00:08:19.246Z,100166.47
2022-09-07T00:10:54.949Z,100168.38
2022-09-07T00:13:23.297Z,100164.03
2022-09-07T00:15:51.489Z,100163.22
2022-09-07T00:18:19.595Z,100160.50
2022-09-07T00:20:47.720Z,100158.00
2022-09-07T00:23:15.803Z,100170.47
2022-09-07T00:25:43.879Z,100164.25
2022-09-07T00:28:13.349Z,100163.44
2022-09-07T00:30:42.320Z,100156.38
2022-09-07T00:33:10.400Z,100154.72
2022-09-07T00:35:41.410Z,100148.25
2022-09-07T00:38:09.580Z,100150.97
2022-09-07T00:40:38.051Z,100150.13
2022-09-07T00:43:06.323Z,100146.59
2022-09-07T00:45:35.900Z,100144.69
2022-09-07T00:48:04.842Z,100142.84
2022-09-07T00:50:34.348Z,100136.56
2022-09-07T00:53:04.736Z,100137.41
2022-09-07T00:55:32.871Z,100136.56
2022-09-07T00:58:00.990Z,100133.88
2022-09-07T01:00:29.414Z,100133.88
2022-09-07T01:02:59.071Z,100140.13
2022-09-07T01:05:29.359Z,100143.88
2022-09-07T01:07:57.911Z,100144.69
2022-09-07T01:10:30.682Z,100143.06
2022-09-07T01:12:58.936Z,100144.94
2022-09-07T01:15:30.549Z,100143.28
2022-09-07T01:18:03.633Z,100143.28
2022-09-07T01:20:38.005Z,100139.75
2022-09-07T01:23:39.328Z,100138.94
2022-09-07T01:26:24.294Z,100131.88
2022-09-07T01:28:54.226Z,100141.84
2022-09-07T01:31:25.315Z,100140.22
2022-09-07T01:33:56.047Z,100134.00
2022-09-07T01:36:27.407Z,100134.00
2022-09-07T01:38:55.991Z,100134.00
2022-09-07T01:41:26.440Z,100130.47
2022-09-07T01:44:00.738Z,100125.88
2022-09-07T01:46:30.268Z,100122.34
2022-09-07T01:49:01.703Z,100121.50
2022-09-07T01:51:32.149Z,100123.16
2022-09-07T01:54:02.212Z,100123.16
2022-09-07T01:56:32.129Z,100119.38
2022-09-07T01:59:02.440Z,100122.34
2022-09-07T02:01:33.289Z,100115.84
2022-09-07T02:04:02.182Z,100112.31
2022-09-07T02:06:33.497Z,100108.81
2022-09-07T02:09:03.366Z,100110.66
2022-09-07T02:11:34.735Z,100121.50
2022-09-07T02:14:06.326Z,100115.25
2022-09-07T02:16:34.407Z,100119.84
2022-09-07T02:19:03.798Z,100115.50
2022-09-07T02:21:33.111Z,100110.91
2022-09-07T02:24:03.529Z,100107.38
2022-09-07T02:26:31.627Z,100113.84
2022-09-07T02:28:59.676Z,100114.66
2022-09-07T02:31:29.565Z,100102.19
2022-09-07T02:33:57.811Z,100101.38
2022-09-07T02:36:27.389Z,100100.31
2022-09-07T02:38:55.484Z,100105.97
2022-09-07T02:41:31.392Z,100101.38
2022-09-07T02:43:59.554Z,100105.16
2022-09-07T02:46:36.219Z,100093.47
2022-09-07T02:49:08.036Z,100092.44
2022-09-07T02:51:38.248Z,100098.88
2022-09-07T02:54:14.544Z,100094.31
2022-09-07T02:56:52.362Z,100093.25
2022-09-07T02:59:28.464Z,100094.31
2022-09-07T03:01:59.876Z,100085.34
2022-09-07T03:04:33.193Z,100087.03
2022-09-07T03:07:04.072Z,100086.19
2022-09-07T03:09:36.394Z,100075.38
2022-09-07T03:12:05.413Z,100080.78
2022-09-07T03:14:34.452Z,100080.78
2022-09-07T03:17:03.974Z,100086.19
2022-09-07T03:19:32.047Z,100088.31
2022-09-07T03:22:00.100Z,100081.00
2022-09-07T03:24:28.144Z,100079.38
2022-09-07T03:26:56.476Z,100082.06
2022-09-07T03:29:24.516Z,100075.81
2022-09-07T03:31:52.810Z,100074.19
2022-09-07T03:34:22.329Z,100072.53
2022-09-07T03:36:50.390Z,100066.06
2022-09-07T03:39:20.965Z,100065.47
2022-09-07T03:41:49.216Z,100058.16
2022-09-07T03:44:17.301Z,100060.88
2022-09-07T03:46:45.362Z,100061.13
2022-09-07T03:49:13.420Z,100062.75
2022-09-07T03:51:42.902Z,100058.41
2022-09-07T03:54:10.972Z,100064.63
2022-09-07T03:56:39.107Z,100070.06
2022-09-07T03:59:07.193Z,100073.56
2022-09-07T04:01:35.425Z,100067.13
2022-09-07T04:04:03.910Z,100070.88
2022-09-07T04:06:32.208Z,100074.66
2022-09-07T04:09:04.592Z,100080.88
2022-09-07T04:11:32.792Z,100076.28
2022-09-07T04:14:00.809Z,100073.56
2022-09-07T04:16:29.194Z,100077.34
2022-09-07T04:18:59.302Z,100069.25
2022-09-07T04:21:28.412Z,100071.94
2022-09-07T04:23:56.519Z,100081.09
2022-09-07T04:26:26.825Z,100077.34
2022-09-07T04:28:55.580Z,100069.25
2022-09-07T04:31:23.940Z,100076.28
2022-09-07T04:33:52.200Z,100071.69
2022-09-07T04:36:20.401Z,100066.28
2022-09-07T04:38:48.500Z,100069.84
2022-09-07T04:41:17.539Z,100073.38
2022-09-07T04:43:47.057Z,100074.19
2022-09-07T04:46:18.212Z,100068.75
2022-09-07T04:48:48.542Z,100072.53
2022-09-07T04:51:16.776Z,100076.88
2022-09-07T04:53:44.827Z,100076.28
2022-09-07T04:56:16.769Z,100077.09
2022-09-07T04:58:46.738Z,100085.22
2022-09-07T05:01:16.098Z,100082.53
2022-09-07T05:03:44.246Z,100084.41
2022-09-07T05:06:12.413Z,100086.06
2022-09-07T05:08:41.618Z,100083.94
2022-09-07T05:11:09.749Z,100079.59
2022-09-07T05:13:37.825Z,100090.41
2022-09-07T05:16:10.464Z,100089.59
2022-09-07T05:18:38.619Z,100079.59
2022-09-07T05:21:11.353Z,100084.19
2022-09-07T05:23:39.431Z,100081.69
2022-09-07T05:26:07.867Z,100089.59
2022-09-07T05:28:37.151Z,100088.78
2022-09-07T05:31:21.952Z,100093.34
2022-09-07T05:36:40.083Z,100091.50
2022-09-07T05:39:08.529Z,100092.53
2022-09-07T05:41:36.647Z,100087.13
2022-09-07T05:46:52.905Z,100090.41
2022-09-07T05:49:22.354Z,100090.41
2022-09-07T05:51:50.404Z,100094.19
2022-09-07T05:54:18.511Z,100108.28
2022-09-07T05:56:46.567Z,100108.28
2022-09-07T05:59:14.644Z,100108.09
2022-09-07T06:01:42.782Z,100112.69
2022-09-07T06:04:10.915Z,100117.03
2022-09-07T06:06:40.424Z,100113.28
2022-09-07T06:09:11.479Z,100112.19
2022-09-07T06:11:39.642Z,100110.56
2022-09-07T06:14:07.681Z,100108.69
2022-09-07T06:16:35.994Z,100113.03
2022-09-07T06:19:06.207Z,100107.59
2022-09-07T06:21:36.245Z,100111.94
2022-09-07T06:24:06.258Z,100106.78
2022-09-07T06:26:34.371Z,100104.09
2022-09-07T06:29:03.412Z,100106.78
2022-09-07T06:31:31.612Z,100104.69
2022-09-07T06:33:59.793Z,100118.22
2022-09-07T06:36:28.381Z,100117.16
2022-09-07T06:38:58.838Z,100119.84
2022-09-07T06:44:17.285Z,100111.13
2022-09-07T06:49:33.619Z,100127.38
2022-09-07T06:52:01.654Z,100127.38
2022-09-07T06:57:19.158Z,100124.44
2022-09-07T06:59:47.221Z,100119.03
2022-09-07T07:02:15.543Z,100120.66
2022-09-07T07:04:43.592Z,100126.09
2022-09-07T07:07:12.738Z,100125.28
2022-09-07T07:09:41.358Z,100133.38
2022-09-07T07:12:09.522Z,100137.72
2022-09-07T07:14:43.957Z,100132.31
2022-09-07T07:17:12.958Z,100139.88
2022-09-07T07:19:41.050Z,100141.50
2022-09-07T07:22:45.515Z,100146.94
2022-09-07T07:24:57.297Z,100141.72
2022-09-07T07:27:25.469Z,100146.31
2022-09-07T07:29:55.000Z,100151.75
2022-09-07T07:32:23.101Z,100152.56
2022-09-07T07:34:51.177Z,100154.44
2022-09-07T07:37:19.253Z,100151.19
2022-09-07T07:42:36.017Z,100156.13
2022-09-07T07:47:54.682Z,100179.41
2022-09-07T07:50:30.944Z,100179.41
2022-09-07T07:55:48.227Z,100187.06
2022-09-07T07:58:16.338Z,100188.97
2022-09-07T08:01:01.236Z,100182.72
2022-09-07T08:03:29.253Z,100175.41
2022-09-07T08:05:57.375Z,100182.72
2022-09-07T08:08:25.429Z,100178.94
2022-09-07T08:10:53.742Z,100177.06
2022-09-07T08:13:22.364Z,100181.66
2022-09-07T08:15:52.054Z,100181.66
2022-09-07T08:18:20.212Z,100180.63
2022-09-07T08:20:48.461Z,100175.78
2022-09-07T08:23:16.452Z,100177.66
2022-09-07T08:25:51.699Z,100177.66
2022-09-07T08:28:19.720Z,100168.72
2022-09-07T08:30:47.702Z,100167.66
2022-09-07T08:33:17.024Z,100176.84
2022-09-07T08:35:54.652Z,100178.47
2022-09-07T08:38:22.586Z,100167.66
2022-09-07T08:40:50.543Z,100167.66
2022-09-07T08:43:23.843Z,100168.50
2022-09-07T08:45:52.559Z,100168.50
2022-09-07T08:48:24.992Z,100168.50
2022-09-07T08:50:54.409Z,100163.91
2022-09-07T08:53:22.367Z,100157.66
2022-09-07T08:55:52.050Z,100162.22
2022-09-07T08:58:45.160Z,100157.66
2022-09-07T09:04:18.722Z,100142.25
2022-09-07T09:06:58.381Z,100138.47
2022-09-07T09:09:31.182Z,100140.94
2022-09-07T09:12:03.860Z,100132.00
2022-09-07T09:14:35.265Z,100139.06
2022-09-07T09:17:05.490Z,100141.78
2022-09-07T09:19:48.595Z,100139.06
2022-09-07T09:22:18.751Z,100136.34
2022-09-07T09:24:47.788Z,100138.84
2022-09-07T09:27:15.906Z,100138.59
2022-09-07T09:29:43.855Z,100139.41
2022-09-07T09:32:34.309Z,100132.94
2022-09-07T09:35:06.428Z,100140.22
2022-09-07T09:37:35.808Z,100133.78
2022-09-07T09:40:04.387Z,100127.53
2022-09-07T09:42:34.386Z,100121.28
2022-09-07T09:45:21.340Z,100119.16
2022-09-07T09:47:50.659Z,100119.16
2022-09-07T09:53:23.956Z,100122.47
2022-09-07T09:55:52.472Z,100119.53
2022-09-07T10:01:26.152Z,100122.00
2022-09-07T10:06:27.842Z,100125.28
2022-09-07T10:08:57.779Z,100125.28
2022-09-07T10:14:29.717Z,100122.09
2022-09-07T10:16:59.135Z,100114.81
2022-09-07T10:19:31.918Z,100114.81
2022-09-07T10:22:00.452Z,100112.09
2022-09-07T10:24:29.276Z,100116.47
2022-09-07T10:26:57.935Z,100115.66
2022-09-07T10:29:29.760Z,100110.25
2022-09-07T10:32:17.512Z,100106.47
2022-09-07T10:34:53.751Z,100109.16
2022-09-07T10:37:27.144Z,100107.28
2022-09-07T10:40:02.007Z,100101.03
2022-09-07T10:42:30.973Z,100105.38
2022-09-07T10:45:04.434Z,100102.69
2022-09-07T10:47:39.149Z,100104.34
2022-09-07T10:50:24.662Z,100104.34
2022-09-07T10:52:55.222Z,100100.59
2022-09-07T10:55:26.335Z,100096.81
2022-09-07T10:58:00.253Z,100100.13
2022-09-07T11:00:28.601Z,100097.41
2022-09-07T11:03:27.658Z,100092.59
2022-09-07T11:06:11.944Z,100089.66
2022-09-07T11:09:16.499Z,100088.81
2022-09-07T11:12:02.858Z,100087.75
2022-09-07T11:14:33.989Z,100079.63
2022-09-07T11:17:03.755Z,100088.34
2022-09-07T11:19:36.135Z,100084.56
2022-09-07T11:22:08.802Z,100083.50
2022-09-07T11:24:38.998Z,100073.75
2022-09-07T11:27:09.312Z,100069.94
2022-09-07T11:29:39.585Z,100075.38
2022-09-07T11:32:09.776Z,100069.94
2022-09-07T11:34:41.218Z,100069.94
2022-09-07T11:37:10.934Z,100061.25
2022-09-07T11:39:41.746Z,100066.19
2022-09-07T11:45:03.472Z,100060.78
2022-09-07T11:47:35.454Z,100067.84
2022-09-07T11:50:05.795Z,100062.41
2022-09-07T11:52:35.657Z,100053.22
2022-09-07T11:55:05.570Z,100055.69
2022-09-07T11:57:56.477Z,100042.75
2022-09-07T12:00:24.840Z,100040.03
2022-09-07T12:03:22.631Z,100044.38
2022-09-07T12:06:07.367Z,100040.03
2022-09-07T12:08:44.718Z,100031.44
2022-09-07T12:11:31.643Z,100032.50
2022-09-07T12:14:12.483Z,100032.25
2022-09-07T12:17:10.006Z,100021.41
2022-09-07T12:19:37.936Z,100017.06
2022-09-07T12:22:22.023Z,100020.59
2022-09-07T12:24:51.419Z,100021.41
2022-09-07T12:27:39.717Z,100017.66
2022-09-07T12:30:49.417Z,100018.69
2022-09-07T12:33:24.155Z,100014.34
2022-09-07T12:35:52.078Z,100017.66
2022-09-07T12:39:07.234Z,100016.00
2022-09-07T12:41:44.600Z,100006.81
2022-09-07T12:44:27.308Z,100013.06
2022-09-07T12:47:01.184Z,100005.75
2022-09-07T12:50:12.797Z,100003.03
2022-09-07T12:53:11.346Z,99998.44
2022-09-07T12:56:16.358Z,100001.94
2022-09-07T12:58:52.373Z,99996.31
2022-09-07T13:01:34.978Z,99990.88
2022-09-07T13:04:43.596Z,99988.75
2022-09-07T13:07:39.224Z,99991.47
2022-09-07T13:10:20.347Z,99984.97
2022-09-07T13:12:57.326Z,99981.19
2022-09-07T13:15:44.078Z,99981.19
2022-09-07T13:18:15.265Z,99982.28
2022-09-07T13:20:43.254Z,99979.34
2022-09-07T13:23:23.458Z,99973.91
2022-09-07T13:25:53.357Z,99975.78
2022-09-07T13:28:33.307Z,99977.44
2022-09-07T13:34:49.801Z,99965.78
2022-09-07T13:37:19.956Z,99974.47
2022-09-07T13:39:48.615Z,99970.13
2022-09-07T13:42:17.446Z,99977.19
2022-09-07T13:44:46.145Z,99967.19
2022-09-07T13:47:17.434Z,99969.06
2022-09-07T13:49:55.916Z,99970.72
2022-09-07T13:52:26.452Z,99966.13
2022-09-07T13:55:01.522Z,99961.50
2022-09-07T13:57:30.248Z,99968.59
2022-09-07T13:59:59.351Z,99964.00
2022-09-07T14:02:28.680Z,99959.38
2022-09-07T14:04:58.480Z,99964.00
2022-09-07T14:07:26.924Z,99960.19
2022-09-07T14:10:08.895Z,99955.59
2022-09-07T14:12:42.800Z,99961.88
2022-09-07T14:15:11.897Z,99966.22
2022-09-07T14:17:39.792Z,99957.25
2022-09-07T14:20:14.233Z,99956.44
2022-09-07T14:22:42.140Z,99958.91
2022-09-07T14:25:16.427Z,99957.25
2022-09-07T14:27:45.222Z,99965.13
2022-09-07T14:30:17.793Z,99965.97
2022-09-07T14:32:46.466Z,99960.56
2022-09-07T14:35:17.418Z,99960.56
2022-09-07T14:37:48.272Z,99953.47
2022-09-07T14:40:19.293Z,99953.47
2022-09-07T14:42:47.292Z,99948.06
2022-09-07T14:45:31.052Z,99949.72
2022-09-07T14:47:58.950Z,99955.97
2022-09-07T14:50:31.302Z,99950.53
2022-09-07T14:55:47.738Z,99959.22
2022-09-07T14:58:24.979Z,99952.16
2022-09-07T15:03:55.138Z,99947.56
2022-09-07T15:09:30.822Z,99951.94
2022-09-07T15:12:18.392Z,99950.03
2022-09-07T15:14:47.617Z,99950.03
2022-09-07T15:20:47.911Z,99941.09
2022-09-07T15:23:19.317Z,99942.16
2022-09-07T15:25:51.880Z,99941.09
2022-09-07T15:34:00.598Z,99939.44
2022-09-07T15:36:28.774Z,99931.31
2022-09-07T15:39:00.150Z,99927.53
2022-09-07T15:41:29.267Z,99932.97
2022-09-07T15:43:57.212Z,99927.53
2022-09-07T15:46:25.351Z,99928.38
2022-09-07T15:48:54.933Z,99927.53
2022-09-07T15:54:14.026Z,99937.31
2022-09-07T15:56:42.661Z,99934.59
2022-09-07T15:59:11.180Z,99933.78
2022-09-07T16:01:56.050Z,99943.56
2022-09-07T16:04:24.513Z,99934.59
2022-09-07T16:06:52.571Z,99936.22
2022-09-07T16:09:22.193Z,99932.47
2022-09-07T16:11:50.906Z,99936.22
2022-09-07T16:14:19.218Z,99936.22
2022-09-07T16:19:36.030Z,99931.66
2022-09-07T16:22:04.396Z,99932.72
2022-09-07T16:24:34.450Z,99937.31
2022-09-07T16:27:02.381Z,99942.72
2022-09-07T16:29:30.433Z,99931.88
2022-09-07T16:34:46.642Z,99946.53
2022-09-07T16:37:14.625Z,99946.53
2022-09-07T16:39:43.966Z,99942.16
2022-09-07T16:42:11.920Z,99939.44
2022-09-07T16:44:39.838Z,99947.56
2022-09-07T16:47:08.091Z,99949.22
2022-09-07T16:49:36.128Z,99947.56
2022-09-07T16:52:05.326Z,99951.94
2022-09-07T16:54:33.320Z,99947.56
2022-09-07T16:57:02.690Z,99933.78
2022-09-07T16:59:31.166Z,99943.81
2022-09-07T17:01:59.165Z,99949.22
2022-09-07T17:04:27.165Z,99943.81
2022-09-07T17:06:55.148Z,99945.44
2022-09-07T17:09:26.657Z,99945.69
2022-09-07T17:11:54.569Z,99951.94
2022-09-07T17:14:24.019Z,99951.94
2022-09-07T17:16:51.971Z,99944.84
2022-09-07T17:19:38.565Z,99947.56
2022-09-07T17:22:07.241Z,99941.34
2022-09-07T17:24:37.158Z,99951.09
2022-09-07T17:27:05.642Z,99953.25
2022-09-07T17:29:37.033Z,99945.94
2022-09-07T17:34:55.891Z,99955.16
2022-09-07T17:37:23.939Z,99951.59
2022-09-07T17:39:51.940Z,99955.97
2022-09-07T17:42:20.095Z,99959.72
2022-09-07T17:44:52.898Z,99962.44
2022-09-07T17:47:21.046Z,99964.31
2022-09-07T17:49:48.984Z,99972.44
2022-09-07T17:52:16.986Z,99968.69
2022-09-07T17:54:44.928Z,99975.16
2022-09-07T17:57:12.925Z,99971.41
2022-09-07T18:02:31.032Z,99981.41
2022-09-07T18:05:00.592Z,99980.59
2022-09-07T18:07:28.574Z,99989.31
2022-09-07T18:09:56.521Z,99987.66
2022-09-07T18:12:24.446Z,99998.50
2022-09-07T18:14:52.358Z,99997.44
2022-09-07T18:17:20.341Z,99993.91
2022-09-07T18:19:49.672Z,99993.09
2022-09-07T18:22:17.598Z,99993.09
2022-09-07T18:24:45.558Z,99997.66
2022-09-07T18:27:13.508Z,99996.84
2022-09-07T18:29:41.536Z,100001.44
2022-09-07T18:32:10.151Z,100000.63
2022-09-07T18:34:38.590Z,100004.38
2022-09-07T18:37:08.296Z,100001.69
2022-09-07T18:39:36.671Z,100006.06
2022-09-07T18:42:04.935Z,100001.69
2022-09-07T18:47:27.715Z,100011.69
2022-09-07T18:49:56.160Z,100010.88
2022-09-07T18:55:13.615Z,100009.00
2022-09-07T18:57:41.578Z,100014.66
2022-09-07T19:00:10.592Z,100016.31
2022-09-07T19:02:38.589Z,100016.31
2022-09-07T19:07:56.218Z,100021.72
2022-09-07T19:10:24.211Z,100009.81
2022-09-07T19:12:52.076Z,100015.00
2022-09-07T19:15:20.506Z,100012.50
2022-09-07T19:17:48.439Z,100014.19
2022-09-07T19:20:16.466Z,100013.59
2022-09-07T19:22:44.366Z,100009.81
2022-09-07T19:25:13.638Z,100008.16
2022-09-07T19:27:41.550Z,100002.75
2022-09-07T19:30:10.683Z,100002.75
2022-09-07T19:32:38.648Z,99994.63
2022-09-07T19:35:06.965Z,99989.44
2022-09-07T19:37:34.976Z,99992.13
2022-09-07T19:40:03.357Z,99987.56
2022-09-07T19:42:32.682Z,99984.84
2022-09-07T19:45:00.935Z,99988.63
2022-09-07T19:47:28.893Z,99986.97
2022-09-07T19:49:56.840Z,99989.69
2022-09-07T19:52:24.832Z,99980.75
2022-09-07T19:54:52.773Z,99986.97
2022-09-07T19:57:20.740Z,99977.19
2022-09-07T19:59:52.784Z,99980.75
2022-09-07T20:02:20.774Z,99979.06
2022-09-07T20:04:48.881Z,99980.75
2022-09-07T20:07:16.861Z,99975.31
2022-09-07T20:09:44.801Z,99983.19
2022-09-07T20:12:12.751Z,99976.13
2022-09-07T20:14:40.659Z,99980.47
2022-09-07T20:17:10.040Z,99972.34
2022-09-07T20:19:37.967Z,99970.47
2022-09-07T20:22:06.017Z,99967.75
2022-09-07T20:24:35.275Z,99967.75
2022-09-07T20:27:03.798Z,99967.75
2022-09-07T20:29:31.716Z,99975.06
2022-09-07T20:32:00.477Z,99981.56
2022-09-07T20:34:29.952Z,99982.38
2022-09-07T20:36:58.680Z,99984.25
2022-09-07T20:39:26.849Z,99988.03
2022-09-07T20:41:54.878Z,99986.97
2022-09-07T20:44:22.800Z,99984.50
2022-09-07T20:46:50.870Z,99976.38
2022-09-07T20:49:18.876Z,99980.97
2022-09-07T20:51:48.233Z,99978.25
2022-09-07T20:54:16.225Z,99970.94
2022-09-07T20:56:44.127Z,99970.94
2022-09-07T20:59:13.610Z,99974.72
2022-09-07T21:01:41.610Z,99979.34
2022-09-07T21:04:09.557Z,99971.19
2022-09-07T21:06:37.576Z,99974.72
2022-09-07T21:09:06.964Z,99964.13
2022-09-07T21:11:35.551Z,99963.06
2022-09-07T21:14:06.153Z,99969.31
2022-09-07T21:16:34.181Z,99972.84
2022-09-07T21:19:02.393Z,99964.72
2022-09-07T21:21:30.696Z,99972.84
2022-09-07T21:23:59.549Z,99969.06
2022-09-07T21:26:29.316Z,99972.84
2022-09-07T21:28:57.526Z,99963.63
2022-09-07T21:31:25.571Z,99965.53
2022-09-07T21:33:55.180Z,99967.41
2022-09-07T21:36:23.127Z,99965.78
2022-09-07T21:38:51.068Z,99965.78
2022-09-07T21:41:20.306Z,99965.78
2022-09-07T21:43:50.263Z,99968.50
2022-09-07T21:46:19.466Z,99969.53
2022-09-07T21:48:47.669Z,99957.88
2022-09-07T21:51:15.669Z,99967.91
2022-09-07T21:53:43.860Z,99967.91
2022-09-07T21:56:12.632Z,99965.44
2022-09-07T21:58:40.901Z,99962.47
2022-09-07T22:01:14.484Z,99959.78
2022-09-07T22:03:42.441Z,99960.00
2022-09-07T22:06:10.490Z,99955.41
2022-09-07T22:08:39.380Z,99959.19
2022-09-07T22:11:08.068Z,99958.38
2022-09-07T22:13:36.072Z,99957.28
2022-09-07T22:16:04.540Z,99960.81
2022-09-07T22:18:34.048Z,99954.59
2022-09-07T22:21:03.467Z,99954.59
2022-09-07T22:23:31.705Z,99952.69
2022-09-07T22:25:59.807Z,99952.69
2022-09-07T22:28:29.398Z,99947.28
2022-09-07T22:30:57.386Z,99955.41
2022-09-07T22:33:25.423Z,99959.78
2022-09-07T22:35:54.711Z,99948.34
2022-09-07T22:38:22.617Z,99949.97
2022-09-07T22:40:50.592Z,99959.19
2022-09-07T22:43:18.531Z,99948.34
2022-09-07T22:45:46.888Z,99946.72
2022-09-07T22:48:14.941Z,99950.47
2022-09-07T22:50:42.954Z,99942.34
2022-09-07T22:53:12.306Z,99936.91
2022-09-07T22:55:40.215Z,99939.63
2022-09-07T22:58:08.149Z,99932.56
2022-09-07T23:00:37.211Z,99935.28
2022-09-07T23:03:05.335Z,99932.56
2022-09-07T23:05:37.480Z,99934.47
2022-09-07T23:08:05.485Z,99931.75
2022-09-07T23:10:36.232Z,99930.94
2022-09-07T23:13:04.396Z,99934.69
2022-09-07T23:15:32.303Z,99930.94
2022-09-07T23:18:00.717Z,99929.06
2022-09-07T23:20:28.633Z,99928.25
2022-09-07T23:22:56.636Z,99930.94
2022-09-07T23:25:24.579Z,99925.53
2022-09-07T23:27:53.911Z,99928.25
2022-09-07T23:30:21.794Z,99925.53
2022-09-07T23:32:49.775Z,99930.94
2022-09-07T23:35:17.817Z,99928.25
2022-09-07T23:37:45.718Z,99929.06
2022-09-07T23:40:13.756Z,99922.81
2022-09-07T23:42:41.723Z,99921.75
2022-09-07T23:45:11.687Z,99919.25
2022-09-07T23:47:39.572Z,99923.88
2022-09-07T23:50:08.206Z,99916.81
2022-09-07T23:52:37.324Z,99915.72
2022-09-07T23:55:05.983Z,99905.97
2022-09-07T23:57:33.952Z,99905.97
